To NAV CANADA Home Page Login to a new session Search on AWWS site Disclaimer Vers la page française équivalente Tips FAQ What's new on the site To the Forecasts and Observations / NOTAM section To "File a Flight Plan" website Publications and other links Update of the User's profile FIC Telephone Numbers My Weather Data Folder Route Weather Data Regional Weather Data Local Weather Data To the Forecasts and Observations / NOTAM section
Request Generated 03/19/2019 at 23:06:01 UTC . Weather information available at that time is displayed.


Save this request

METAR/TAF

WINNIPEG/JAMES ARMSTRONG RICHARDSON INTL/MB    

METAR CYWG 192300Z 23011G16KT 15SM FEW140 FEW250 04/M02 A2988 RMK AC1CI1 SLP133=
METAR CYWG 192200Z 22014G20KT 15SM BKN140 04/M02 A2989 RMK AC6 SLP137=
METAR CYWG 192100Z 23013G19KT 15SM BKN095 04/M02 A2993 RMK AC7 SLP150=

TAF CYWG 191738Z 1918/2018 22015KT P6SM FEW100 BKN200
FM200000 25015KT P6SM SCT200
FM200300 30012KT P6SM SCT012 TEMPO 2003/2008 2SM BR BKN012
FM200800 35012KT 5SM BR SCT004 TEMPO 2008/2015 1SM BR BKN004
PROB40 2009/2015 1/4SM FZFG VV001
FM201500 35012KT P6SM FEW004 SCT012 TEMPO 2015/2018 5SM BR
RMK NXT FCST BY 200000Z=

PORTAGE LA PRAIRIE/SOUTHPORT/MB    

METAR CYPG 192200Z CCA 24014G19KT 15SM FEW082 SCT240 08/M03 A2989 RMK AC2CI2 LAST OBS/NEXT 201100 UTC SLP133=
METAR CYPG 192200Z 24014G19KT 15SM FEW082 SCT240 08/M03 A2989 RMK AC2CI2 SLP133=
METAR CYPG 192100Z 24013G18KT 15SM SCT082 BKN240 07/M02 A2992 RMK AC3CI2 SLP145=
METAR CYPG 192000Z 24015KT 15SM BKN086 BKN240 05/M02 A2996 RMK AC6CI1 SLP158=

TAF AMD CYPG 192217Z 1918/2006 FCST CNCLD DUE END OF FLYING PROGRAM
RMK NXT FCST WILL BE ISSUED AT 201215Z=

BRANDON MUNICIPALITY/MB    

METAR CYBR 192300Z 26013G22KT 15SM FEW250 03/M01 A2992 RMK CI2 SLP160=
METAR CYBR 192200Z 24012G21KT 15SM FEW160 SCT250 03/M02 A2993 RMK AC1CI3 AC TR SLP162=
METAR CYBR 192100Z 24012KT 15SM FEW160 SCT250 03/M02 A2995 RMK AC1CI2 SLP168=

TAF CYBR 191738Z 1918/2006 26012KT P6SM SCT100 BKN200
BECMG 1919/1921 26018G28KT
FM192100 26018G28KT P6SM FEW200
BECMG 2001/2003 31012KT
RMK NXT FCST BY 200000Z=

KENORA/ON    

METAR CYQK 192300Z 21014KT 20SM FEW060 OVC087 03/M01 A2986 RMK SC2AC6 SLP133=
METAR CYQK 192200Z 21013KT 15SM FEW045 OVC070 03/M01 A2992 RMK SC2AS6 PRESFR SLP151=
METAR CYQK 192100Z 19010KT 15SM OVC075 02/M01 A2996 RMK AS8 SLP165=

TAF CYQK 191946Z 1920/2008 22012KT P6SM SCT008 OVC160 TEMPO 1920/2002
6SM -SNRA BKN008 OVC160
FM200200 25008KT P6SM FEW007 OVC015 TEMPO 2002/2007 2SM -SN BR
OVC007 PROB30 2002/2007 1SM -FZDZ BR OVC004
RMK NXT FCST BY 200200Z=

DRYDEN REGIONAL/ON    (show WxCam)

METAR CYHD 192300Z AUTO 22012G17KT 9SM -RA FEW021 BKN055 OVC071 01/M02 A2987 RMK SLP139=
SPECI CYHD 192245Z AUTO 23011G18KT 9SM -RA FEW046 BKN055 OVC068 01/M02 A2988 RMK SLP143=
SPECI CYHD 192224Z AUTO 23012G18KT 9SM OVC070 01/M02 A2989 RMK SLP147=
SPECI CYHD 192211Z AUTO 22014KT 9SM -RA BKN065 OVC076 01/M02 A2990 RMK SLP150=
SPECI CYHD 192204Z AUTO 22013KT 9SM BKN060 OVC077 01/M02 A2991 RMK SLP152=
METAR CYHD 192200Z AUTO 22011G17KT 9SM -RA BKN060 OVC075 01/M02 A2991 RMK SLP153=
SPECI CYHD 192152Z AUTO 22013G18KT 9SM -RA BKN060 BKN075 OVC096 01/M02 A2991 RMK SLP153=
METAR CYHD 192100Z AUTO 22011KT 9SM BKN090 OVC110 02/M02 A2994 RMK SLP161=

TAF CYHD 191946Z 1920/2008 24012KT P6SM SCT015 BKN200 TEMPO 1920/1922
BKN015
FM192200 24012KT 6SM -SNRA OVC025 TEMPO 1922/2001 21/2SM -SN
OVC015
FM200100 24010KT 6SM -SN OVC010 TEMPO 2001/2008 2SM -SN BR OVC006
PROB30 2001/2008 2SM -FZDZ BR OVC005
RMK FCST BASED ON AUTO OBS. NXT FCST BY 200200Z=

THUNDER BAY/ON    (show WxCam)

METAR CYQT 192300Z 23011KT 20SM FEW060 OVC160 06/M03 A2994 RMK SC2AC6 SLP152=
METAR CYQT 192200Z 22011KT 20SM FEW170 OVC200 06/M03 A2995 RMK AC2CI6 SLP153=
METAR CYQT 192100Z 19009G16KT 20SM SCT200 06/M02 A2996 RMK CC3 SLP158=

TAF AMD CYQT 192002Z 1920/2008 22010KT P6SM SCT050 BKN220
FM200200 24008KT P6SM SCT020 OVC120 TEMPO 2002/2005 6SM -RA BR
BKN020 OVC100
FM200500 25008KT 6SM -RA BR SCT015 OVC080 TEMPO 2005/2008 4SM
-SNRA BR OVC015
RMK NXT FCST BY 200200Z=


Your time UTC time
Weather data provided by Environment Canada and NAV CANADA